createdAt,value
2017-10-26T00:00:26.016Z,6.30
2017-10-26T00:02:53.533Z,5.60
2017-10-26T00:05:21.052Z,6.23
2017-10-26T00:07:48.562Z,5.60
2017-10-26T00:10:16.059Z,5.37
2017-10-26T00:12:43.576Z,5.40
2017-10-26T00:15:11.086Z,5.00
2017-10-26T00:17:38.603Z,5.30
2017-10-26T00:20:06.116Z,5.60
2017-10-26T00:22:33.627Z,4.80
2017-10-26T00:25:01.137Z,5.10
2017-10-26T00:27:28.647Z,4.57
2017-10-26T00:29:56.155Z,5.33
2017-10-26T00:32:24.028Z,5.60
2017-10-26T00:34:51.533Z,5.97
2017-10-26T00:37:19.177Z,5.87
2017-10-26T00:39:46.691Z,5.63
2017-10-26T00:42:14.206Z,6.03
2017-10-26T00:44:41.727Z,5.10
2017-10-26T00:47:09.232Z,6.20
2017-10-26T00:49:36.878Z,6.80
2017-10-26T00:52:16.723Z,6.07
2017-10-26T00:54:44.235Z,7.00
2017-10-26T00:57:11.741Z,7.23
2017-10-26T00:59:39.267Z,6.70
2017-10-26T01:02:06.788Z,7.70
2017-10-26T01:04:34.287Z,7.10
2017-10-26T01:07:01.810Z,6.10
2017-10-26T01:09:29.324Z,6.57
2017-10-26T01:11:56.835Z,5.97
2017-10-26T01:14:24.341Z,6.70
2017-10-26T01:16:51.888Z,6.40
2017-10-26T01:19:19.400Z,6.40
2017-10-26T01:21:46.915Z,7.33
2017-10-26T01:24:14.522Z,6.93
2017-10-26T01:26:42.022Z,6.27
2017-10-26T01:29:09.638Z,7.07
2017-10-26T01:31:37.143Z,5.93
2017-10-26T01:34:04.702Z,7.00
2017-10-26T01:36:32.227Z,6.63
2017-10-26T01:38:59.722Z,6.10
2017-10-26T01:41:27.230Z,6.77
2017-10-26T01:43:54.747Z,7.13
2017-10-26T01:46:22.252Z,6.97
2017-10-26T02:00:22.334Z,7.53
2017-10-26T02:02:49.897Z,8.57
2017-10-26T02:05:17.400Z,7.30
2017-10-26T02:07:44.932Z,7.80
2017-10-26T02:10:12.447Z,7.33
2017-10-26T02:12:39.954Z,8.30
2017-10-26T02:15:07.469Z,8.10
2017-10-26T02:17:34.978Z,7.13
2017-10-26T02:20:02.493Z,7.60
2017-10-26T02:22:30.008Z,8.60
2017-10-26T02:24:57.540Z,9.00
2017-10-26T02:27:25.071Z,8.40
2017-10-26T02:32:54.513Z,7.00
2017-10-26T02:35:22.051Z,6.90
2017-10-26T02:37:49.566Z,7.00
2017-10-26T02:40:18.060Z,7.30
2017-10-26T02:42:45.731Z,6.97
2017-10-26T02:45:13.239Z,7.87
2017-10-26T02:47:40.742Z,7.47
2017-10-26T03:01:43.423Z,6.90
2017-10-26T03:04:10.926Z,6.80
2017-10-26T03:06:39.410Z,6.80
2017-10-26T03:09:06.925Z,6.50
2017-10-26T03:11:34.419Z,6.47
2017-10-26T03:14:01.937Z,7.60
2017-10-26T03:16:29.448Z,8.27
2017-10-26T03:19:04.587Z,8.23
2017-10-26T03:21:32.102Z,8.60
2017-10-26T03:23:59.638Z,8.13
2017-10-26T03:26:27.161Z,8.70
2017-10-26T03:28:54.669Z,9.77
2017-10-26T03:31:22.179Z,9.50
2017-10-26T03:33:49.699Z,9.00
2017-10-26T03:36:17.216Z,7.33
2017-10-26T03:38:44.741Z,9.83
2017-10-26T03:41:12.256Z,9.20
2017-10-26T03:43:39.779Z,10.07
2017-10-26T03:46:07.284Z,8.13
2017-10-26T03:48:34.805Z,8.70
2017-10-26T03:51:02.317Z,9.37
2017-10-26T03:53:29.828Z,10.10
2017-10-26T03:55:57.416Z,10.07
2017-10-26T03:58:24.919Z,9.47
2017-10-26T04:00:52.436Z,9.60
2017-10-26T04:03:20.040Z,10.37
2017-10-26T04:05:47.557Z,10.57
2017-10-26T04:08:15.080Z,11.73
2017-10-26T04:10:42.597Z,12.60
2017-10-26T04:13:23.620Z,14.20
2017-10-26T04:15:51.143Z,14.57
2017-10-26T04:18:18.662Z,13.00
2017-10-26T04:20:46.184Z,13.90
2017-10-26T04:23:13.707Z,14.60
2017-10-26T04:25:41.229Z,57.07
2017-10-26T04:28:08.761Z,15.57
2017-10-26T04:30:36.270Z,14.30
2017-10-26T04:33:03.800Z,13.07
2017-10-26T04:35:31.331Z,14.00
2017-10-26T04:37:58.852Z,19.43
2017-10-26T04:40:26.382Z,18.70
2017-10-26T04:42:53.942Z,14.07
2017-10-26T04:45:21.607Z,15.47
2017-10-26T04:47:49.122Z,24.03
2017-10-26T04:50:16.647Z,30.37
2017-10-26T04:52:47.887Z,23.80
2017-10-26T04:55:15.446Z,21.20
2017-10-26T04:57:42.986Z,22.80
2017-10-26T05:00:10.489Z,21.47
2017-10-26T05:02:49.503Z,19.87
2017-10-26T05:05:29.375Z,20.43
2017-10-26T05:07:56.899Z,21.13
2017-10-26T05:10:37.147Z,17.47
2017-10-26T05:13:04.686Z,17.80
2017-10-26T05:15:44.538Z,20.97
2017-10-26T05:18:12.095Z,22.50
2017-10-26T05:20:39.693Z,24.30
2017-10-26T05:23:07.213Z,22.40
2017-10-26T05:25:34.726Z,26.10
2017-10-26T05:28:02.261Z,26.87
2017-10-26T05:30:29.819Z,28.03
2017-10-26T05:32:57.415Z,25.33
2017-10-26T05:35:25.302Z,23.97
2017-10-26T05:37:52.816Z,35.27
2017-10-26T05:40:20.333Z,26.07
2017-10-26T05:42:47.864Z,27.43
2017-10-26T05:45:15.382Z,25.50
2017-10-26T05:47:42.927Z,26.00
2017-10-26T05:50:10.452Z,24.43
2017-10-26T05:52:38.005Z,25.87
2017-10-26T05:55:05.531Z,24.30
2017-10-26T05:57:33.062Z,23.60
2017-10-26T06:00:00.635Z,27.03
2017-10-26T06:02:28.224Z,27.40
2017-10-26T06:04:55.731Z,27.87
2017-10-26T06:07:23.263Z,26.77
2017-10-26T06:09:50.793Z,32.60
2017-10-26T06:12:18.320Z,31.50
2017-10-26T06:14:45.854Z,26.30
2017-10-26T06:17:13.372Z,26.33
2017-10-26T06:19:40.903Z,26.20
2017-10-26T06:22:08.449Z,22.20
2017-10-26T06:24:35.975Z,21.60
2017-10-26T06:27:03.487Z,19.63
2017-10-26T06:29:31.015Z,18.87
2017-10-26T06:31:58.526Z,20.97
2017-10-26T06:34:26.040Z,19.70
2017-10-26T06:36:53.553Z,22.60
2017-10-26T06:39:21.070Z,21.47
2017-10-26T06:41:48.588Z,20.10
2017-10-26T06:44:16.111Z,18.63
2017-10-26T06:46:56.046Z,17.97
2017-10-26T06:49:23.589Z,18.33
2017-10-26T06:51:51.106Z,20.30
2017-10-26T06:54:18.635Z,19.50
2017-10-26T06:56:46.144Z,19.97
2017-10-26T06:59:13.661Z,19.40
2017-10-26T07:01:41.207Z,17.67
2017-10-26T07:04:08.718Z,17.37
2017-10-26T07:06:36.247Z,18.37
2017-10-26T07:09:11.157Z,20.70
2017-10-26T07:11:38.695Z,18.10
2017-10-26T07:14:06.207Z,20.67
2017-10-26T07:16:33.761Z,18.70
2017-10-26T07:19:01.338Z,15.83
2017-10-26T07:21:28.863Z,16.20
2017-10-26T07:23:56.408Z,16.80
2017-10-26T07:26:23.918Z,16.33
2017-10-26T07:28:51.430Z,17.13
2017-10-26T07:31:18.981Z,16.23
2017-10-26T07:33:46.526Z,14.97
2017-10-26T07:36:14.067Z,14.07
2017-10-26T07:38:41.642Z,14.97
2017-10-26T07:41:09.287Z,13.30
2017-10-26T07:43:36.805Z,13.83
2017-10-26T07:46:04.309Z,12.20
2017-10-26T07:48:31.828Z,12.57
2017-10-26T07:50:59.339Z,14.47
2017-10-26T07:53:34.971Z,11.30
2017-10-26T07:56:02.556Z,10.90
2017-10-26T07:58:30.073Z,11.27
2017-10-26T08:00:57.623Z,12.10
2017-10-26T08:03:25.140Z,11.20
2017-10-26T08:05:52.662Z,10.50
2017-10-26T08:08:20.205Z,10.60
2017-10-26T08:10:47.752Z,11.10
2017-10-26T08:13:15.268Z,10.97
2017-10-26T08:15:42.800Z,10.90
2017-10-26T08:18:10.343Z,9.17
2017-10-26T08:20:37.852Z,9.80
2017-10-26T08:23:05.363Z,8.80
2017-10-26T08:25:32.899Z,14.43
2017-10-26T08:28:00.445Z,9.97
2017-10-26T08:30:27.951Z,8.10
2017-10-26T08:32:55.515Z,8.57
2017-10-26T08:35:23.075Z,9.03
2017-10-26T08:37:50.595Z,8.90
2017-10-26T08:40:18.203Z,7.90
2017-10-26T08:42:45.725Z,8.40
2017-10-26T08:45:13.251Z,8.90
2017-10-26T08:47:40.783Z,9.00
2017-10-26T08:50:08.323Z,6.93
2017-10-26T08:52:35.860Z,6.13
2017-10-26T08:55:03.416Z,7.57
2017-10-26T08:57:43.385Z,7.17
2017-10-26T09:11:43.730Z,7.10
2017-10-26T09:14:11.243Z,7.90
2017-10-26T09:16:38.759Z,6.23
2017-10-26T09:19:06.264Z,6.80
2017-10-26T09:21:33.782Z,5.10
2017-10-26T09:24:01.287Z,5.90
2017-10-26T09:26:28.823Z,5.30
2017-10-26T09:28:56.360Z,5.77
2017-10-26T09:31:23.892Z,5.00
2017-10-26T09:33:51.392Z,5.27
2017-10-26T09:36:18.956Z,5.30
2017-10-26T09:38:46.479Z,4.53
2017-10-26T09:41:14.014Z,4.90
2017-10-26T09:43:41.552Z,4.70
2017-10-26T09:46:09.067Z,3.90
2017-10-26T09:48:36.581Z,4.67
2017-10-26T09:51:04.107Z,5.00
2017-10-26T09:53:31.648Z,5.10
2017-10-26T09:55:59.177Z,5.30
2017-10-26T09:58:26.703Z,4.50
2017-10-26T10:00:54.260Z,4.27
2017-10-26T10:06:24.037Z,4.33
2017-10-26T10:08:51.568Z,4.47
2017-10-26T10:11:19.105Z,4.10
2017-10-26T10:13:46.644Z,4.50
2017-10-26T10:16:14.154Z,3.27
2017-10-26T10:18:41.676Z,5.20
2017-10-26T10:21:09.234Z,3.63
2017-10-26T10:23:36.744Z,4.07
2017-10-26T10:26:04.342Z,3.90
2017-10-26T10:28:31.863Z,3.47
2017-10-26T10:30:59.375Z,2.73
2017-10-26T10:33:26.888Z,3.50
2017-10-26T10:35:54.411Z,2.90
2017-10-26T10:38:21.914Z,2.77
2017-10-26T10:40:49.451Z,2.90
2017-10-26T10:43:16.948Z,2.70
2017-10-26T10:45:44.459Z,2.67
2017-10-26T10:48:11.979Z,3.17
2017-10-26T10:50:39.505Z,2.93
2017-10-26T10:53:07.022Z,2.70
2017-10-26T10:55:34.535Z,3.27
2017-10-26T10:58:02.268Z,3.17
2017-10-26T11:00:33.670Z,3.10
2017-10-26T11:03:01.172Z,3.20
2017-10-26T11:05:28.704Z,3.80
2017-10-26T11:07:58.845Z,3.83
2017-10-26T11:10:26.389Z,2.90
2017-10-26T11:12:54.119Z,3.10
2017-10-26T11:15:21.648Z,3.70
2017-10-26T11:17:49.170Z,2.90
2017-10-26T11:20:16.681Z,2.73
2017-10-26T11:22:44.211Z,3.07
2017-10-26T11:25:11.716Z,3.13
2017-10-26T11:27:39.241Z,3.20
2017-10-26T11:30:06.751Z,2.70
2017-10-26T11:32:34.280Z,2.67
2017-10-26T11:35:01.779Z,2.80
2017-10-26T11:37:29.305Z,2.80
2017-10-26T11:39:56.858Z,3.07
2017-10-26T11:42:24.386Z,3.00
2017-10-26T11:44:51.975Z,2.37
2017-10-26T11:47:19.512Z,2.60
2017-10-26T11:49:47.092Z,2.73
2017-10-26T11:52:14.652Z,3.27
2017-10-26T11:54:42.211Z,3.00
2017-10-26T11:57:09.717Z,3.67
2017-10-26T11:59:37.252Z,3.60
2017-10-26T12:02:04.773Z,3.77
2017-10-26T12:04:32.299Z,4.20
2017-10-26T12:06:59.804Z,3.80
2017-10-26T12:09:27.330Z,4.40
2017-10-26T12:11:54.845Z,4.27
2017-10-26T12:14:22.362Z,4.17
2017-10-26T12:16:49.886Z,4.83
2017-10-26T12:19:17.492Z,5.07
2017-10-26T12:21:45.045Z,5.40
2017-10-26T12:24:12.571Z,4.87
2017-10-26T12:26:40.079Z,5.20
2017-10-26T12:29:07.594Z,4.27
2017-10-26T12:31:35.117Z,4.60
2017-10-26T12:34:02.647Z,3.80
2017-10-26T12:36:30.154Z,3.27
2017-10-26T12:38:57.678Z,3.77
2017-10-26T12:41:25.209Z,3.87
2017-10-26T12:43:52.735Z,4.17
2017-10-26T12:46:20.256Z,4.00
2017-10-26T12:48:47.795Z,4.57
2017-10-26T12:51:15.331Z,4.30
2017-10-26T12:53:42.842Z,4.60
2017-10-26T12:56:11.745Z,4.33
2017-10-26T12:58:39.276Z,5.80
2017-10-26T13:01:06.825Z,5.00
2017-10-26T13:03:34.340Z,5.27
2017-10-26T13:06:01.865Z,5.33
2017-10-26T13:08:29.392Z,6.17
2017-10-26T13:10:56.945Z,6.63
2017-10-26T13:13:24.497Z,5.97
2017-10-26T13:15:52.064Z,6.10
2017-10-26T13:18:19.570Z,5.77
2017-10-26T13:20:47.125Z,6.20
2017-10-26T13:23:14.654Z,6.33
2017-10-26T13:25:42.167Z,6.47
2017-10-26T13:28:09.960Z,5.97
2017-10-26T13:30:37.480Z,6.00
2017-10-26T13:33:04.990Z,6.50
2017-10-26T13:35:33.510Z,8.40
2017-10-26T13:38:01.044Z,8.07
2017-10-26T13:40:28.577Z,11.10
2017-10-26T13:42:56.092Z,11.33
2017-10-26T13:45:23.624Z,8.27
2017-10-26T13:47:51.192Z,9.30
2017-10-26T13:50:18.696Z,13.80
2017-10-26T13:52:46.234Z,11.60
2017-10-26T13:55:13.739Z,8.00
2017-10-26T13:57:41.247Z,8.30
2017-10-26T14:00:08.769Z,7.70
2017-10-26T14:02:36.283Z,7.03
2017-10-26T14:05:03.832Z,7.67
2017-10-26T14:07:31.341Z,7.47
2017-10-26T14:10:02.617Z,8.57
2017-10-26T14:12:30.148Z,7.00
2017-10-26T14:14:57.657Z,8.00
2017-10-26T14:17:25.179Z,7.27
2017-10-26T14:19:52.703Z,7.10
2017-10-26T14:22:20.219Z,7.40
2017-10-26T14:27:44.038Z,8.57
2017-10-26T14:41:53.349Z,8.57
2017-10-26T14:44:21.210Z,11.23
2017-10-26T14:47:03.007Z,9.90
2017-10-26T14:49:30.874Z,15.20
2017-10-26T14:51:58.616Z,10.27
2017-10-26T14:54:26.293Z,10.20
2017-10-26T14:56:58.765Z,9.03
2017-10-26T14:59:26.289Z,8.53
2017-10-26T15:01:53.825Z,9.20
2017-10-26T15:04:21.356Z,9.40
2017-10-26T15:06:48.875Z,9.33
2017-10-26T15:09:16.390Z,8.43
2017-10-26T15:11:43.895Z,7.70
2017-10-26T15:14:11.427Z,9.30
2017-10-26T15:16:38.931Z,7.90
2017-10-26T15:19:06.458Z,8.10
2017-10-26T15:21:33.987Z,7.80
2017-10-26T15:24:01.508Z,8.30
2017-10-26T15:26:29.045Z,8.13
2017-10-26T15:28:56.553Z,8.50
2017-10-26T15:31:24.089Z,7.00
2017-10-26T15:33:51.600Z,7.37
2017-10-26T15:36:19.111Z,6.60
2017-10-26T15:38:46.627Z,7.17
2017-10-26T15:41:24.502Z,16.90
2017-10-26T15:43:52.011Z,6.47
2017-10-26T15:46:19.582Z,6.70
2017-10-26T15:48:47.112Z,7.00
2017-10-26T15:51:16.573Z,7.20
2017-10-26T15:53:44.080Z,7.37
2017-10-26T15:56:11.619Z,10.07
2017-10-26T15:58:39.159Z,8.23
2017-10-26T16:01:06.703Z,8.80
2017-10-26T16:03:34.230Z,9.60
2017-10-26T16:06:01.775Z,10.37
2017-10-26T16:08:29.298Z,10.73
2017-10-26T16:10:56.815Z,10.47
2017-10-26T16:13:24.335Z,8.87
2017-10-26T16:15:51.862Z,10.80
2017-10-26T16:18:19.382Z,9.67
2017-10-26T16:20:46.911Z,10.33
2017-10-26T16:34:49.379Z,11.60
2017-10-26T16:37:16.903Z,11.93
2017-10-26T16:39:46.237Z,12.40
2017-10-26T16:42:13.775Z,13.10
2017-10-26T16:44:41.321Z,12.93
2017-10-26T16:47:08.855Z,11.27
2017-10-26T16:49:36.608Z,10.83
2017-10-26T16:52:04.152Z,11.90
2017-10-26T16:54:41.624Z,10.87
2017-10-26T16:57:09.145Z,11.60
2017-10-26T16:59:36.682Z,11.60
2017-10-26T17:02:04.209Z,11.63
2017-10-26T17:16:07.575Z,10.30
2017-10-26T17:18:42.815Z,10.77
2017-10-26T17:21:10.365Z,10.07
2017-10-26T17:23:37.896Z,10.40
2017-10-26T17:26:05.454Z,10.60
2017-10-26T17:28:32.970Z,11.07
2017-10-26T17:31:00.482Z,11.10
2017-10-26T17:33:28.052Z,12.87
2017-10-26T17:35:55.589Z,12.13
2017-10-26T17:38:23.111Z,14.93
2017-10-26T17:40:50.640Z,13.70
2017-10-26T17:43:18.160Z,12.33
2017-10-26T17:45:45.700Z,12.77
2017-10-26T17:48:13.240Z,12.20
2017-10-26T17:50:40.780Z,11.47
2017-10-26T17:53:08.309Z,12.20
2017-10-26T17:55:35.827Z,10.70
2017-10-26T17:58:03.368Z,10.30
2017-10-26T18:00:56.632Z,10.47
2017-10-26T18:03:24.231Z,9.23
2017-10-26T18:05:51.764Z,10.90
2017-10-26T18:08:19.305Z,10.10
2017-10-26T18:10:46.835Z,10.50
2017-10-26T18:13:14.367Z,9.90
2017-10-26T18:15:41.887Z,9.17
2017-10-26T18:18:09.397Z,10.73
2017-10-26T18:20:36.923Z,9.73
2017-10-26T18:23:06.431Z,9.90
2017-10-26T18:25:34.073Z,9.93
2017-10-26T18:28:01.605Z,10.47
2017-10-26T18:30:29.248Z,9.03
2017-10-26T18:32:56.815Z,8.33
2017-10-26T18:35:24.355Z,7.63
2017-10-26T18:37:51.897Z,7.63
2017-10-26T18:40:19.484Z,7.83
2017-10-26T18:42:47.071Z,9.60
2017-10-26T18:45:14.617Z,9.10
2017-10-26T18:47:42.142Z,10.00
2017-10-26T18:50:09.685Z,8.27
2017-10-26T18:52:37.219Z,9.93
2017-10-26T18:55:04.793Z,8.50
2017-10-26T18:57:32.341Z,8.93
2017-10-26T18:59:59.873Z,8.87
2017-10-26T19:02:35.294Z,8.40
2017-10-26T19:05:02.813Z,7.33
2017-10-26T19:07:30.337Z,8.67
2017-10-26T19:09:58.777Z,8.63
2017-10-26T19:15:22.501Z,9.20
2017-10-26T19:17:50.976Z,7.40
2017-10-26T19:20:18.548Z,8.30
2017-10-26T19:22:46.968Z,9.00
2017-10-26T19:25:14.528Z,8.60
2017-10-26T19:27:42.047Z,7.10
2017-10-26T19:30:09.660Z,7.00
2017-10-26T19:32:37.324Z,7.37
2017-10-26T19:35:05.009Z,8.30
2017-10-26T19:37:33.496Z,8.73
2017-10-26T19:40:01.032Z,7.60
2017-10-26T19:54:01.355Z,9.20
2017-10-26T19:56:28.952Z,9.77
2017-10-26T19:58:56.504Z,9.30
2017-10-26T20:01:27.092Z,10.53
2017-10-26T20:03:54.632Z,8.90
2017-10-26T20:06:22.148Z,8.87
2017-10-26T20:08:49.739Z,9.50
2017-10-26T20:11:17.316Z,10.03
2017-10-26T20:13:44.941Z,9.93
2017-10-26T20:16:12.452Z,10.33
2017-10-26T20:18:39.985Z,11.47
2017-10-26T20:21:07.524Z,8.93
2017-10-26T20:23:35.702Z,7.57
2017-10-26T20:26:03.227Z,8.90
2017-10-26T20:28:30.789Z,9.13
2017-10-26T20:30:58.343Z,9.90
2017-10-26T20:33:25.881Z,8.10
2017-10-26T20:35:53.416Z,6.37
2017-10-26T20:38:21.021Z,7.17
2017-10-26T20:40:48.669Z,8.20
2017-10-26T20:43:16.189Z,8.53
2017-10-26T20:45:43.736Z,9.20
2017-10-26T20:48:11.285Z,7.87
2017-10-26T20:53:49.957Z,7.00
2017-10-26T20:56:23.223Z,9.10
2017-10-26T20:58:56.295Z,7.40
2017-10-26T21:01:30.296Z,7.87
2017-10-26T21:04:03.523Z,8.03
2017-10-26T21:06:31.063Z,7.00
2017-10-26T21:09:04.394Z,6.63
2017-10-26T21:11:37.600Z,7.97
2017-10-26T21:14:10.835Z,6.53
2017-10-26T21:16:38.352Z,7.40
2017-10-26T21:19:18.283Z,7.13
2017-10-26T21:21:45.888Z,7.03
2017-10-26T21:24:13.495Z,10.47
2017-10-26T21:26:41.047Z,7.53
2017-10-26T21:29:08.582Z,10.37
2017-10-26T21:31:36.242Z,9.93
2017-10-26T21:34:03.833Z,8.03
2017-10-26T21:36:31.365Z,6.60
2017-10-26T21:38:58.920Z,5.97
2017-10-26T21:41:26.439Z,7.80
2017-10-26T21:43:53.975Z,18.73
2017-10-26T21:46:21.494Z,11.80
2017-10-26T21:48:49.026Z,12.37
2017-10-26T21:51:16.557Z,13.80
2017-10-26T21:53:46.069Z,11.93
2017-10-26T21:56:13.601Z,8.40
2017-10-26T21:58:41.758Z,7.93
2017-10-26T22:01:09.322Z,9.90
2017-10-26T22:03:36.823Z,11.90
2017-10-26T22:06:04.344Z,12.93
2017-10-26T22:08:31.854Z,15.10
2017-10-26T22:10:59.343Z,11.80
2017-10-26T22:13:26.864Z,13.17
2017-10-26T22:15:54.364Z,12.33
2017-10-26T22:18:21.842Z,13.30
2017-10-26T22:20:49.331Z,17.67
2017-10-26T22:23:16.862Z,15.77
2017-10-26T22:25:44.368Z,13.73
2017-10-26T22:28:11.865Z,11.93
2017-10-26T22:30:40.332Z,10.97
2017-10-26T22:33:07.874Z,10.70
2017-10-26T22:35:35.367Z,10.80
2017-10-26T22:38:02.877Z,10.33
2017-10-26T22:40:30.371Z,12.43
2017-10-26T22:42:57.896Z,10.20
2017-10-26T22:45:25.386Z,9.70
2017-10-26T22:47:52.876Z,9.77
2017-10-26T22:50:20.373Z,9.97
2017-10-26T22:52:47.885Z,8.67
2017-10-26T22:55:15.363Z,8.53
2017-10-26T22:57:42.855Z,8.30
2017-10-26T23:00:10.364Z,8.67
2017-10-26T23:02:37.872Z,9.10
2017-10-26T23:05:05.434Z,8.90
2017-10-26T23:07:32.934Z,9.20
2017-10-26T23:10:05.003Z,9.57
2017-10-26T23:12:32.604Z,9.47
2017-10-26T23:15:00.090Z,8.93
2017-10-26T23:17:27.593Z,8.23
2017-10-26T23:19:55.105Z,7.33
2017-10-26T23:22:22.587Z,7.60
2017-10-26T23:24:50.081Z,8.60
2017-10-26T23:27:17.559Z,7.07
2017-10-26T23:29:45.205Z,6.00
2017-10-26T23:32:12.704Z,6.50
2017-10-26T23:34:40.190Z,7.50
2017-10-26T23:37:07.684Z,6.93
2017-10-26T23:39:35.182Z,7.30
2017-10-26T23:42:02.683Z,7.17
2017-10-26T23:44:30.178Z,7.63
2017-10-26T23:46:57.654Z,8.07
2017-10-26T23:49:25.144Z,7.80
2017-10-26T23:51:52.632Z,7.10
2017-10-26T23:54:20.177Z,7.63
2017-10-26T23:56:47.680Z,7.13
2017-10-26T23:59:15.176Z,6.77
